Time;durP1;ratioP1;P1;durP2;ratioP2;P2;SDS_P1;SDS_P2;PMS_P1;PMS_P2;Temp;Humidity;BMP_temperature;BMP_pressure;BME280_temperature;BME280_humidity;BME280_pressure;Samples;Min_cycle;Max_cycle;Signal;HPM_P1;HPM_P2
2022/09/27 00:01:06;;;;;;;31.93;21.43;;;12.60;99.90;;;;;;4995167;28;20197;-76
2022/09/27 00:03:33;;;;;;;32.80;21.03;;;12.60;99.90;;;;;;4996962;28;20210;-72
2022/09/27 00:06:09;;;;;;;33.27;21.40;;;12.60;99.90;;;;;;4997281;28;20290;-80
2022/09/27 00:08:36;;;;;;;31.90;21.30;;;12.60;99.90;;;;;;5014797;28;20696;-82
2022/09/27 00:11:06;;;;;;;30.17;21.23;;;12.70;99.90;;;;;;4997588;28;20208;-72
2022/09/27 00:13:36;;;;;;;34.73;21.67;;;12.60;99.90;;;;;;4997375;28;20224;-80
2022/09/27 00:16:06;;;;;;;32.27;21.97;;;12.70;99.90;;;;;;4997178;28;20247;-81
2022/09/27 00:18:33;;;;;;;33.73;22.10;;;12.60;99.90;;;;;;5014692;28;20291;-80
2022/09/27 00:21:08;;;;;;;36.53;23.33;;;12.60;99.90;;;;;;4997692;28;20192;-79
2022/09/27 00:23:35;;;;;;;34.30;22.30;;;12.60;99.90;;;;;;4996736;28;20199;-74
2022/09/27 00:26:03;;;;;;;35.77;22.60;;;12.70;99.90;;;;;;4996743;28;20224;-79
2022/09/27 00:28:30;;;;;;;33.80;22.17;;;12.70;99.90;;;;;;4996900;28;20199;-75
2022/09/27 00:30:58;;;;;;;35.37;22.00;;;12.70;99.90;;;;;;4996853;28;20208;-73
2022/09/27 00:33:26;;;;;;;38.17;23.50;;;12.70;99.90;;;;;;4996324;28;20703;-72
2022/09/27 00:35:53;;;;;;;36.67;22.20;;;12.70;99.90;;;;;;4995656;28;20497;-80
2022/09/27 00:38:20;;;;;;;38.07;23.27;;;12.70;99.90;;;;;;4980134;28;20214;-78
2022/09/27 00:40:48;;;;;;;39.03;23.63;;;12.70;99.90;;;;;;4997057;28;20338;-79
2022/09/27 00:43:19;;;;;;;35.37;22.07;;;12.70;99.90;;;;;;4996663;28;20196;-80
2022/09/27 00:46:14;;;;;;;39.30;23.17;;;12.70;99.90;;;;;;5013984;28;20538;-78
2022/09/27 00:48:41;;;;;;;39.97;23.17;;;12.60;99.90;;;;;;4996465;28;20204;-74
2022/09/27 00:51:09;;;;;;;36.60;23.10;;;12.70;99.90;;;;;;5014018;28;20197;-77
2022/09/27 00:53:45;;;;;;;38.80;22.90;;;12.70;99.90;;;;;;4996988;28;20581;-80
2022/09/27 00:56:22;;;;;;;41.83;23.60;;;12.70;99.90;;;;;;4996351;28;20335;-80
2022/09/27 00:59:02;;;;;;;39.20;23.43;;;12.70;99.90;;;;;;4996133;28;20199;-79
2022/09/27 01:01:29;;;;;;;39.13;22.97;;;12.70;99.90;;;;;;5013854;28;20678;-80
2022/09/27 01:04:09;;;;;;;38.27;22.97;;;12.70;99.90;;;;;;5012788;28;20242;-74
2022/09/27 01:06:37;;;;;;;41.90;23.97;;;12.70;99.90;;;;;;5012193;28;20287;-72
2022/09/27 01:09:09;;;;;;;40.97;22.90;;;12.70;99.90;;;;;;5012070;28;20211;-74
2022/09/27 01:12:03;;;;;;;41.17;22.57;;;12.70;99.90;;;;;;5013911;28;20188;-82
2022/09/27 01:15:08;;;;;;;39.67;22.20;;;12.70;99.90;;;;;;4996277;28;20204;-72
2022/09/27 01:17:54;;;;;;;37.23;21.70;;;12.70;99.90;;;;;;4996391;28;20223;-72
2022/09/27 01:20:40;;;;;;;38.90;21.93;;;12.60;99.90;;;;;;5013646;28;20203;-81
2022/09/27 01:23:29;;;;;;;40.60;22.93;;;12.60;99.90;;;;;;5013190;28;20742;-82
2022/09/27 01:26:21;;;;;;;42.63;22.87;;;12.50;99.90;;;;;;5013846;28;20223;-71
2022/09/27 01:28:57;;;;;;;39.77;23.10;;;12.50;99.90;;;;;;4995264;28;20250;-74
2022/09/27 01:31:39;;;;;;;41.30;23.43;;;12.50;99.90;;;;;;4995833;28;20200;-80
2022/09/27 01:34:15;;;;;;;40.97;23.43;;;12.60;99.90;;;;;;5011704;28;20227;-79
2022/09/27 01:37:07;;;;;;;40.07;22.87;;;12.60;99.90;;;;;;5012102;28;20246;-82
2022/09/27 01:40:12;;;;;;;39.97;23.70;;;12.50;99.90;;;;;;5004281;28;20712;-74
2022/09/27 01:42:48;;;;;;;38.93;23.17;;;12.40;99.90;;;;;;4976214;28;20247;-82
2022/09/27 01:45:31;;;;;;;39.67;23.03;;;12.40;99.90;;;;;;4993780;28;20195;-81
2022/09/27 01:48:02;;;;;;;42.83;22.93;;;12.40;99.90;;;;;;4991866;28;20204;-81
2022/09/27 01:50:47;;;;;;;39.90;23.50;;;12.50;99.90;;;;;;4992419;28;20220;-79
2022/09/27 01:53:21;;;;;;;36.13;22.23;;;12.40;99.90;;;;;;4990002;28;20283;-81
2022/09/27 01:55:51;;;;;;;36.93;21.43;;;12.40;99.90;;;;;;4978689;28;20192;-82
2022/09/27 01:58:30;;;;;;;38.53;23.27;;;12.40;99.90;;;;;;5012131;28;20191;-77
2022/09/27 02:00:59;;;;;;;40.23;23.40;;;12.40;99.90;;;;;;5013235;28;20203;-78
2022/09/27 02:03:34;;;;;;;34.17;22.10;;;12.40;99.90;;;;;;5012720;28;20645;-73
2022/09/27 02:06:09;;;;;;;40.97;23.40;;;12.40;99.90;;;;;;5012236;28;20646;-81
2022/09/27 02:08:44;;;;;;;38.90;22.63;;;12.40;99.90;;;;;;4995948;28;20223;-82
2022/09/27 02:11:16;;;;;;;38.53;23.57;;;12.40;99.90;;;;;;4996574;28;20195;-81
2022/09/27 02:13:58;;;;;;;40.40;23.20;;;12.40;99.90;;;;;;5001914;28;20217;-81
2022/09/27 02:16:47;;;;;;;38.57;23.37;;;12.40;99.90;;;;;;4982620;28;20197;-81
2022/09/27 02:19:26;;;;;;;39.00;23.23;;;12.40;99.90;;;;;;4976005;28;20614;-80
2022/09/27 02:22:10;;;;;;;37.83;22.57;;;12.40;99.90;;;;;;4992158;28;20681;-77
2022/09/27 02:24:46;;;;;;;36.60;22.27;;;12.50;99.90;;;;;;4991820;28;20200;-79
2022/09/27 02:27:42;;;;;;;37.03;21.63;;;12.40;99.90;;;;;;4993052;28;20216;-78
2022/09/27 02:30:11;;;;;;;37.03;22.63;;;12.40;99.90;;;;;;4899035;29;20329;-78
2022/09/27 02:32:39;;;;;;;36.30;22.57;;;12.50;99.90;;;;;;4914342;29;20227;-78
2022/09/27 02:35:32;;;;;;;36.77;23.03;;;12.50;99.90;;;;;;4914164;29;20208;-80
2022/09/27 02:38:00;;;;;;;36.77;22.10;;;12.50;99.90;;;;;;4898495;29;20251;-75
2022/09/27 02:40:32;;;;;;;39.53;24.47;;;12.50;99.90;;;;;;4913880;29;20208;-80
2022/09/27 02:43:00;;;;;;;38.43;23.70;;;12.50;99.90;;;;;;4898687;29;20211;-74
2022/09/27 02:45:36;;;;;;;38.80;23.63;;;12.50;99.90;;;;;;4898509;29;20247;-78
2022/09/27 02:48:17;;;;;;;40.33;24.10;;;12.50;99.90;;;;;;4898340;29;20547;-78
2022/09/27 02:51:02;;;;;;;49.20;25.47;;;12.60;99.90;;;;;;4913999;29;20203;-78
2022/09/27 02:54:03;;;;;;;43.43;24.77;;;12.50;99.90;;;;;;4914230;29;20232;-79
2022/09/27 02:56:41;;;;;;;42.73;25.00;;;12.50;99.90;;;;;;4898309;29;20211;-75
2022/09/27 02:59:41;;;;;;;43.43;25.97;;;12.50;99.90;;;;;;4915668;29;20696;-79
2022/09/27 03:02:40;;;;;;;44.37;25.23;;;12.50;99.90;;;;;;4917647;29;20231;-77
2022/09/27 03:05:29;;;;;;;39.97;24.13;;;12.50;99.90;;;;;;4916613;29;20234;-77
2022/09/27 03:07:56;;;;;;;42.07;23.90;;;12.50;99.90;;;;;;4963080;28;20235;-74
2022/09/27 03:10:26;;;;;;;45.07;25.17;;;12.50;99.90;;;;;;4995073;28;20207;-72
2022/09/27 03:12:54;;;;;;;44.77;25.83;;;12.50;99.90;;;;;;5001370;28;20220;-74
2022/09/27 03:15:24;;;;;;;46.83;25.83;;;12.50;99.90;;;;;;4998064;28;20189;-73
2022/09/27 03:17:51;;;;;;;45.23;25.37;;;12.50;99.90;;;;;;4996980;28;20196;-75
2022/09/27 03:20:18;;;;;;;49.00;26.40;;;12.40;99.90;;;;;;5014391;28;20203;-75
2022/09/27 03:22:45;;;;;;;46.70;26.00;;;12.40;99.90;;;;;;4998040;28;20204;-76
2022/09/27 03:25:12;;;;;;;47.60;25.63;;;12.40;99.90;;;;;;4997865;28;20270;-73
2022/09/27 03:27:39;;;;;;;48.63;27.73;;;12.40;99.90;;;;;;4997710;28;20200;-77
2022/09/27 03:30:06;;;;;;;44.47;26.10;;;12.40;99.90;;;;;;5015642;28;20189;-78
2022/09/27 03:32:33;;;;;;;44.20;26.23;;;12.50;99.90;;;;;;4981837;28;20298;-78
2022/09/27 03:35:00;;;;;;;41.67;24.70;;;12.50;99.90;;;;;;4997709;28;20219;-77
2022/09/27 03:37:28;;;;;;;48.63;26.10;;;12.50;99.90;;;;;;5014043;28;20196;-78
2022/09/27 03:39:55;;;;;;;46.47;26.53;;;12.50;99.90;;;;;;4997684;28;20204;-78
2022/09/27 03:42:22;;;;;;;45.67;25.13;;;12.50;99.90;;;;;;4997863;28;20204;-78
2022/09/27 03:44:50;;;;;;;46.57;26.13;;;12.50;99.90;;;;;;4997435;28;20188;-78
2022/09/27 03:47:17;;;;;;;44.77;26.23;;;12.50;99.90;;;;;;4997685;28;20192;-82
2022/09/27 03:49:44;;;;;;;47.53;26.10;;;12.50;99.90;;;;;;4997436;28;20196;-81
2022/09/27 03:52:11;;;;;;;52.60;27.47;;;12.40;99.90;;;;;;5013806;28;20672;-81
2022/09/27 03:54:37;;;;;;;48.97;27.97;;;12.40;99.90;;;;;;4997542;28;20220;-83
2022/09/27 03:57:04;;;;;;;51.27;28.10;;;12.40;99.90;;;;;;4981172;28;20200;-83
2022/09/27 03:59:31;;;;;;;51.63;28.30;;;12.40;99.90;;;;;;4997360;28;20207;-83
2022/09/27 04:01:58;;;;;;;50.03;27.43;;;12.40;99.90;;;;;;4997865;28;20244;-83
2022/09/27 04:04:29;;;;;;;49.47;27.47;;;12.40;99.90;;;;;;4996959;28;20208;-86
2022/09/27 04:06:57;;;;;;;51.90;29.17;;;12.40;99.90;;;;;;4997193;28;20383;-73
2022/09/27 04:09:25;;;;;;;55.27;29.93;;;12.50;99.90;;;;;;4980971;28;20200;-75
2022/09/27 04:11:55;;;;;;;57.97;30.30;;;12.50;99.90;;;;;;5014342;28;20250;-85
2022/09/27 04:14:22;;;;;;;56.13;30.43;;;12.50;99.90;;;;;;4997243;28;20282;-77
2022/09/27 04:16:49;;;;;;;58.50;30.27;;;12.50;99.90;;;;;;5014695;28;20234;-82
2022/09/27 04:19:16;;;;;;;57.67;31.03;;;12.50;99.90;;;;;;5013108;28;20736;-82
2022/09/27 04:21:42;;;;;;;59.60;31.57;;;12.40;99.90;;;;;;4996789;28;20231;-82
2022/09/27 04:24:10;;;;;;;58.70;29.73;;;12.50;99.90;;;;;;5014269;28;20192;-82
2022/09/27 04:26:38;;;;;;;55.37;29.73;;;12.40;99.90;;;;;;4996537;28;20599;-75
2022/09/27 04:29:07;;;;;;;55.27;29.70;;;12.50;99.90;;;;;;5014329;28;20645;-77
2022/09/27 04:31:36;;;;;;;54.60;28.37;;;12.50;99.90;;;;;;4996918;28;20629;-83
2022/09/27 04:34:04;;;;;;;57.37;29.53;;;12.40;99.90;;;;;;4981407;28;20263;-82
2022/09/27 04:36:31;;;;;;;53.40;28.00;;;12.40;99.90;;;;;;4996703;28;20196;-72
2022/09/27 04:39:00;;;;;;;53.60;28.30;;;12.40;99.90;;;;;;4996501;28;20199;-80
2022/09/27 04:41:28;;;;;;;51.83;27.33;;;12.40;99.90;;;;;;5014643;28;20609;-73
2022/09/27 04:43:55;;;;;;;55.27;28.53;;;12.40;99.90;;;;;;4996820;28;20192;-73
2022/09/27 04:46:30;;;;;;;54.83;28.43;;;12.50;99.90;;;;;;5013729;28;20222;-74
2022/09/27 04:48:59;;;;;;;54.57;27.83;;;12.40;99.90;;;;;;4996417;28;20196;-72
2022/09/27 04:51:26;;;;;;;55.30;28.37;;;12.50;99.90;;;;;;5014105;28;20192;-77
2022/09/27 04:53:56;;;;;;;49.07;26.43;;;12.40;99.90;;;;;;4996004;28;20232;-78
2022/09/27 04:56:22;;;;;;;51.83;26.23;;;12.40;99.90;;;;;;4996161;28;20505;-82
2022/09/27 04:58:49;;;;;;;53.40;25.80;;;12.30;99.90;;;;;;4996515;28;20215;-83
2022/09/27 05:01:16;;;;;;;52.60;26.87;;;12.30;99.90;;;;;;4996479;28;20224;-77
2022/09/27 05:03:43;;;;;;;54.13;27.67;;;12.30;99.90;;;;;;5012650;28;20235;-77
2022/09/27 05:06:11;;;;;;;51.50;26.37;;;12.30;99.90;;;;;;5012679;28;20629;-78
2022/09/27 05:08:38;;;;;;;55.17;26.80;;;12.30;99.90;;;;;;4995589;28;20235;-80
2022/09/27 05:11:04;;;;;;;56.83;26.97;;;12.30;99.90;;;;;;4996070;28;20227;-81
2022/09/27 05:13:32;;;;;;;51.93;25.80;;;12.30;99.90;;;;;;4995914;28;20291;-72
2022/09/27 05:16:03;;;;;;;51.50;26.97;;;12.30;99.90;;;;;;4996026;28;20196;-71
2022/09/27 05:18:33;;;;;;;50.57;25.60;;;12.30;99.90;;;;;;5012236;28;20708;-73
2022/09/27 05:20:59;;;;;;;51.40;24.90;;;12.30;99.90;;;;;;4998912;28;20601;-72
2022/09/27 05:23:26;;;;;;;53.07;25.87;;;12.30;99.90;;;;;;4976369;28;20677;-75
2022/09/27 05:25:55;;;;;;;54.60;25.90;;;12.20;99.90;;;;;;4975937;28;20652;-71
2022/09/27 05:28:23;;;;;;;52.77;26.33;;;12.20;99.90;;;;;;4976397;28;20223;-76
2022/09/27 05:30:50;;;;;;;52.20;25.50;;;12.20;99.90;;;;;;4988891;28;20214;-74
2022/09/27 05:33:17;;;;;;;52.40;26.23;;;12.20;99.90;;;;;;4994002;28;20229;-76
2022/09/27 05:35:55;;;;;;;51.53;25.73;;;12.20;99.90;;;;;;5012208;28;20500;-76
2022/09/27 05:38:24;;;;;;;49.73;24.33;;;12.10;99.90;;;;;;4969535;28;20207;-81
2022/09/27 05:40:51;;;;;;;48.23;24.50;;;12.10;99.90;;;;;;5012968;28;20192;-85
2022/09/27 05:43:20;;;;;;;49.00;23.63;;;12.00;99.90;;;;;;4995432;28;20197;-81
2022/09/27 05:45:47;;;;;;;44.23;22.73;;;11.90;99.90;;;;;;4996957;28;20204;-82
2022/09/27 05:48:14;;;;;;;48.40;23.37;;;11.90;99.90;;;;;;4995643;28;20230;-75
2022/09/27 05:50:41;;;;;;;44.50;22.30;;;11.90;99.90;;;;;;4995271;28;20645;-80
2022/09/27 05:53:09;;;;;;;40.00;20.03;;;11.90;99.90;;;;;;4994485;28;20192;-80
2022/09/27 05:55:36;;;;;;;42.33;20.33;;;11.80;99.90;;;;;;4995307;28;20192;-80
2022/09/27 05:58:05;;;;;;;42.10;19.80;;;11.80;99.90;;;;;;5011832;28;20200;-77
2022/09/27 06:00:33;;;;;;;42.47;20.57;;;11.80;99.90;;;;;;4995344;28;20207;-80
2022/09/27 06:03:03;;;;;;;42.30;20.33;;;11.90;99.90;;;;;;4995552;28;20529;-78
2022/09/27 06:05:34;;;;;;;41.17;20.73;;;11.90;99.90;;;;;;4995290;28;20197;-79
2022/09/27 06:08:03;;;;;;;38.80;19.33;;;11.90;99.90;;;;;;5003057;28;20236;-75
2022/09/27 06:10:31;;;;;;;40.10;18.93;;;11.90;99.90;;;;;;4975943;28;20220;-75
2022/09/27 06:13:01;;;;;;;35.03;17.83;;;11.90;99.90;;;;;;4984069;28;20207;-73
2022/09/27 06:15:30;;;;;;;36.90;17.83;;;11.90;99.90;;;;;;5012480;28;20220;-74
2022/09/27 06:18:02;;;;;;;35.90;17.33;;;11.80;99.90;;;;;;5011769;28;20277;-79
2022/09/27 06:20:30;;;;;;;34.63;16.93;;;11.90;99.90;;;;;;5012970;28;20188;-78
2022/09/27 06:23:10;;;;;;;35.47;16.83;;;11.80;99.90;;;;;;4989517;28;20573;-78
2022/09/27 06:25:38;;;;;;;37.67;18.07;;;11.90;99.90;;;;;;4989828;28;20199;-78
2022/09/27 06:28:05;;;;;;;33.23;16.17;;;11.90;99.90;;;;;;4995445;28;20196;-76
2022/09/27 06:30:32;;;;;;;34.27;17.20;;;11.90;99.90;;;;;;5011280;28;20200;-75
2022/09/27 06:33:00;;;;;;;37.03;17.47;;;11.90;99.90;;;;;;5011792;28;20196;-77
2022/09/27 06:35:29;;;;;;;35.50;17.83;;;11.90;99.90;;;;;;5014441;28;20212;-74
2022/09/27 06:37:57;;;;;;;32.70;16.90;;;11.80;99.90;;;;;;5007319;28;20203;-74
2022/09/27 06:40:25;;;;;;;35.83;17.80;;;11.70;99.90;;;;;;4995706;28;20208;-72
2022/09/27 06:42:52;;;;;;;39.67;17.40;;;11.70;99.90;;;;;;5013728;28;20231;-75
2022/09/27 06:45:19;;;;;;;38.13;18.07;;;11.70;99.90;;;;;;4996491;28;20196;-74
2022/09/27 06:47:46;;;;;;;35.73;18.03;;;11.70;99.90;;;;;;4996172;28;20188;-75
2022/09/27 06:50:13;;;;;;;39.67;18.70;;;11.70;99.90;;;;;;4997635;28;20583;-73
2022/09/27 06:52:47;;;;;;;37.80;19.00;;;11.70;99.90;;;;;;4997509;28;20188;-74
2022/09/27 06:55:15;;;;;;;39.93;19.00;;;11.70;99.90;;;;;;4995232;28;20315;-76
2022/09/27 07:00:46;;;;;;;43.03;19.33;;;11.80;99.90;;;;;;5013392;28;20204;-77
2022/09/27 07:03:14;;;;;;;38.13;18.53;;;11.70;99.90;;;;;;4995700;28;20532;-76
2022/09/27 07:05:41;;;;;;;41.07;19.43;;;11.80;99.90;;;;;;5002603;28;20727;-73
2022/09/27 07:08:10;;;;;;;43.73;19.40;;;11.90;99.90;;;;;;5006694;28;20232;-74
2022/09/27 07:10:39;;;;;;;42.43;18.97;;;12.00;99.90;;;;;;4996292;28;20192;-74
2022/09/27 07:13:10;;;;;;;43.30;21.33;;;12.00;99.90;;;;;;5012571;28;20280;-74
2022/09/27 07:15:40;;;;;;;50.67;23.07;;;12.00;99.90;;;;;;5010807;28;20882;-71
2022/09/27 07:18:07;;;;;;;38.93;19.53;;;12.10;99.90;;;;;;4993298;28;20181;-73
2022/09/27 07:20:38;;;;;;;42.03;20.10;;;12.10;99.90;;;;;;4996303;28;20562;-73
2022/09/27 07:23:07;;;;;;;43.43;20.13;;;12.20;99.90;;;;;;4997555;28;20200;-74
2022/09/27 07:25:34;;;;;;;44.37;19.17;;;12.20;99.90;;;;;;4997645;28;20204;-73
2022/09/27 07:28:06;;;;;;;44.40;20.50;;;12.20;99.90;;;;;;4998104;28;20286;-72
2022/09/27 07:30:34;;;;;;;41.93;19.17;;;12.20;99.90;;;;;;5006503;28;20558;-73
2022/09/27 07:33:04;;;;;;;41.57;20.23;;;12.20;99.90;;;;;;4996463;28;20545;-73
2022/09/27 07:35:31;;;;;;;39.73;19.00;;;12.30;99.90;;;;;;4993103;28;20858;-71
2022/09/27 07:37:58;;;;;;;35.07;19.03;;;12.30;99.90;;;;;;4997321;28;20657;-73
2022/09/27 07:40:25;;;;;;;34.43;18.93;;;12.30;99.90;;;;;;5015130;28;20199;-72
2022/09/27 07:42:57;;;;;;;36.13;19.07;;;12.30;99.90;;;;;;5014431;28;20184;-75
2022/09/27 07:45:25;;;;;;;33.37;18.80;;;12.30;99.90;;;;;;5010705;28;20193;-73
2022/09/27 07:47:52;;;;;;;35.80;18.93;;;12.40;99.90;;;;;;4994926;28;20188;-74
2022/09/27 07:50:19;;;;;;;41.60;19.53;;;12.40;99.90;;;;;;4995516;28;20196;-74
2022/09/27 07:52:51;;;;;;;37.03;19.23;;;12.30;99.90;;;;;;4997221;28;20203;-79
2022/09/27 07:55:18;;;;;;;35.63;18.83;;;12.20;99.90;;;;;;4995673;28;20623;-80
2022/09/27 07:57:52;;;;;;;34.53;19.07;;;12.20;99.90;;;;;;5013341;28;20270;-80
2022/09/27 08:00:19;;;;;;;39.50;20.17;;;12.10;99.90;;;;;;4996241;28;20204;-75
2022/09/27 08:02:46;;;;;;;38.27;19.77;;;12.10;99.90;;;;;;4994618;28;20559;-75
2022/09/27 08:05:13;;;;;;;34.87;19.17;;;12.10;99.90;;;;;;4996411;28;20205;-75
2022/09/27 08:07:40;;;;;;;35.37;19.70;;;12.30;99.90;;;;;;5006871;28;20220;-73
2022/09/27 08:10:08;;;;;;;37.20;19.33;;;12.30;99.90;;;;;;4992053;28;20641;-75
2022/09/27 08:12:35;;;;;;;37.10;20.23;;;12.40;99.90;;;;;;4995540;28;20193;-74
2022/09/27 08:15:03;;;;;;;35.13;19.83;;;12.50;99.90;;;;;;5008172;28;20216;-76
2022/09/27 08:17:31;;;;;;;36.17;20.50;;;12.60;99.90;;;;;;4985828;28;20185;-75
2022/09/27 08:20:01;;;;;;;38.90;21.53;;;12.60;99.90;;;;;;5005308;28;20215;-75
2022/09/27 08:22:28;;;;;;;33.10;19.03;;;12.60;99.90;;;;;;4996737;28;20638;-74
2022/09/27 08:25:07;;;;;;;32.37;20.03;;;12.60;99.90;;;;;;4996566;28;20272;-75
2022/09/27 08:27:35;;;;;;;32.13;18.90;;;12.60;99.90;;;;;;5012762;28;20223;-76
2022/09/27 08:30:02;;;;;;;35.70;19.07;;;12.70;99.90;;;;;;4996566;28;20200;-78
2022/09/27 08:32:29;;;;;;;31.23;18.47;;;12.70;99.90;;;;;;5008829;28;20212;-75
2022/09/27 08:34:59;;;;;;;30.77;18.97;;;12.80;99.90;;;;;;4993821;28;20220;-76
2022/09/27 08:37:59;;;;;;;29.90;18.30;;;12.70;99.90;;;;;;5043824;23;20258;-76
2022/09/27 08:40:55;;;;;;;35.20;19.23;;;12.70;99.90;;;;;;5043709;28;20210;-74
2022/09/27 08:43:36;;;;;;;32.63;19.17;;;12.70;99.90;;;;;;5025715;28;20240;-75
2022/09/27 08:46:20;;;;;;;34.00;19.60;;;12.70;99.90;;;;;;5029823;28;20195;-76
2022/09/27 08:48:53;;;;;;;35.70;19.67;;;12.70;99.90;;;;;;5030421;28;20199;-78
2022/09/27 08:51:40;;;;;;;33.50;19.07;;;12.80;99.90;;;;;;5025828;28;20191;-78
2022/09/27 08:54:20;;;;;;;36.13;19.73;;;12.90;99.90;;;;;;5023918;28;20215;-77
2022/09/27 08:57:18;;;;;;;36.50;19.27;;;12.80;99.90;;;;;;5044990;28;20501;-77
2022/09/27 09:00:19;;;;;;;34.40;18.33;;;12.90;99.90;;;;;;5002278;28;20262;-79
2022/09/27 09:03:01;;;;;;;34.13;18.40;;;12.90;99.90;;;;;;5026736;28;20206;-89
2022/09/27 09:08:53;;;;;;;32.97;19.00;;;13.20;99.90;;;;;;5052853;23;20223;-81
2022/09/27 09:14:37;;;;;;;29.50;18.23;;;13.30;99.90;;;;;;5033920;28;20219;-82
2022/09/27 09:20:18;;;;;;;34.53;17.77;;;13.30;99.90;;;;;;5011725;23;20227;-82
2022/09/27 09:26:46;;;;;;;33.63;18.73;;;13.20;99.90;;;;;;4979967;28;20223;-87
2022/09/27 09:30:07;;;;;;;34.10;18.67;;;13.30;99.90;;;;;;5122311;23;20302;-82
2022/09/27 09:33:12;;;;;;;31.87;18.93;;;13.40;99.90;;;;;;5012074;28;20195;-76
2022/09/27 09:36:03;;;;;;;34.17;19.10;;;13.30;99.90;;;;;;5011764;28;20337;-76
2022/09/27 09:38:33;;;;;;;34.27;19.23;;;13.30;99.90;;;;;;5010950;28;20206;-74
2022/09/27 09:41:15;;;;;;;34.47;19.07;;;13.40;99.90;;;;;;5017875;28;20207;-75
2022/09/27 09:43:49;;;;;;;39.33;20.43;;;13.40;99.90;;;;;;4979347;28;20200;-76
2022/09/27 09:46:19;;;;;;;34.57;19.63;;;13.40;99.90;;;;;;4995986;28;20710;-74
2022/09/27 09:49:03;;;;;;;37.40;21.17;;;13.50;99.90;;;;;;5016167;28;20220;-74
2022/09/27 09:51:39;;;;;;;34.53;19.33;;;13.60;99.90;;;;;;5024457;28;20537;-76
2022/09/27 09:54:30;;;;;;;30.80;18.03;;;13.60;99.90;;;;;;5014718;28;20198;-75
2022/09/27 09:57:34;;;;;;;29.87;17.80;;;13.70;99.90;;;;;;5015198;28;20270;-73
2022/09/27 10:00:16;;;;;;;27.43;17.37;;;13.70;99.90;;;;;;5010092;28;20195;-74
2022/09/27 10:02:45;;;;;;;25.93;16.77;;;13.60;99.90;;;;;;5008189;28;20191;-73
2022/09/27 10:05:15;;;;;;;31.07;17.93;;;13.70;99.90;;;;;;5009245;28;20191;-71
2022/09/27 10:07:43;;;;;;;28.90;17.63;;;13.50;99.90;;;;;;5015565;28;20257;-72
2022/09/27 10:10:15;;;;;;;28.67;17.27;;;13.60;99.90;;;;;;5017336;28;20250;-71
2022/09/27 10:12:43;;;;;;;29.73;18.27;;;13.50;99.90;;;;;;5010161;28;20202;-71
2022/09/27 10:15:19;;;;;;;32.67;19.00;;;13.30;99.90;;;;;;5022557;28;20220;-71
2022/09/27 10:17:52;;;;;;;33.30;18.90;;;13.30;99.90;;;;;;5025682;28;20195;-71
2022/09/27 10:20:37;;;;;;;31.87;19.50;;;13.30;99.90;;;;;;5023884;28;20194;-74
2022/09/27 10:23:20;;;;;;;33.57;19.97;;;13.30;99.90;;;;;;5015491;28;20192;-74
2022/09/27 10:25:57;;;;;;;33.80;20.50;;;13.40;99.90;;;;;;5010040;28;20196;-77
2022/09/27 10:28:42;;;;;;;32.23;19.50;;;13.40;99.90;;;;;;5012981;28;20281;-79
2022/09/27 10:31:17;;;;;;;33.00;20.23;;;13.30;99.90;;;;;;5024501;28;20191;-79
2022/09/27 10:34:00;;;;;;;32.30;20.37;;;13.40;99.90;;;;;;5009265;28;20215;-74
2022/09/27 10:36:33;;;;;;;31.07;19.87;;;13.50;99.90;;;;;;5012472;28;20231;-74
2022/09/27 10:39:05;;;;;;;28.13;19.00;;;13.60;99.90;;;;;;4997582;28;20196;-73
2022/09/27 10:41:35;;;;;;;29.53;19.27;;;13.70;99.90;;;;;;5006266;28;20266;-74
2022/09/27 10:44:14;;;;;;;30.77;19.07;;;13.80;99.90;;;;;;4996388;28;20192;-73
2022/09/27 10:46:48;;;;;;;29.97;19.60;;;13.90;99.90;;;;;;5006019;28;20202;-75
2022/09/27 10:49:24;;;;;;;29.43;18.83;;;13.90;99.90;;;;;;5027501;28;20192;-74
2022/09/27 10:51:55;;;;;;;28.37;18.73;;;13.90;99.90;;;;;;5014564;28;20185;-74
2022/09/27 10:54:32;;;;;;;27.43;18.70;;;13.90;99.90;;;;;;5012160;28;20261;-75
2022/09/27 10:57:13;;;;;;;27.03;17.97;;;13.90;99.90;;;;;;5021879;28;20215;-75
2022/09/27 10:59:44;;;;;;;27.63;17.97;;;13.90;99.90;;;;;;5025774;28;20574;-76
2022/09/27 11:02:35;;;;;;;27.67;19.00;;;13.90;99.90;;;;;;5027481;28;20199;-73
2022/09/27 11:05:05;;;;;;;29.23;19.23;;;13.80;99.90;;;;;;4955823;28;20202;-74
2022/09/27 11:07:36;;;;;;;29.43;19.70;;;13.80;99.90;;;;;;4953957;28;20186;-74
2022/09/27 11:10:30;;;;;;;30.43;19.57;;;13.80;99.90;;;;;;4963725;28;20215;-77
2022/09/27 11:13:11;;;;;;;29.10;19.07;;;13.90;99.90;;;;;;4963622;28;20306;-76
2022/09/27 11:15:49;;;;;;;28.77;19.30;;;14.10;99.90;;;;;;4955154;28;20225;-75
2022/09/27 11:18:30;;;;;;;27.40;18.80;;;14.00;99.90;;;;;;4967439;28;20199;-75
2022/09/27 11:21:26;;;;;;;28.63;19.57;;;14.10;99.90;;;;;;4949811;28;20604;-74
2022/09/27 11:23:59;;;;;;;26.67;18.67;;;14.10;99.90;;;;;;4909514;29;20204;-74
2022/09/27 11:26:43;;;;;;;26.57;17.93;;;14.10;99.90;;;;;;4912861;29;20305;-75
2022/09/27 11:33:07;;;;;;;26.53;18.07;;;14.20;99.90;;;;;;4900165;29;20214;-74
2022/09/27 11:36:14;;;;;;;27.57;18.60;;;14.30;99.90;;;;;;4914010;29;20258;-76
2022/09/27 11:39:21;;;;;;;29.30;19.13;;;14.40;99.90;;;;;;4896614;29;20202;-76
2022/09/27 11:42:15;;;;;;;29.17;18.93;;;14.30;99.90;;;;;;4894519;29;20211;-74
2022/09/27 11:44:51;;;;;;;26.83;18.60;;;14.20;99.90;;;;;;4945087;29;20194;-74
2022/09/27 11:47:52;;;;;;;24.17;17.30;;;14.20;99.90;;;;;;4949830;29;20605;-73
2022/09/27 11:50:55;;;;;;;26.83;18.47;;;14.10;99.90;;;;;;4950848;29;20555;-76
2022/09/27 11:53:58;;;;;;;24.47;17.30;;;14.30;99.90;;;;;;4935348;28;20208;-76
2022/09/27 11:56:40;;;;;;;22.57;16.37;;;14.60;99.90;;;;;;4949954;29;20579;-77
2022/09/27 11:59:26;;;;;;;22.67;16.50;;;14.50;99.90;;;;;;4934561;29;20675;-76
2022/09/27 12:02:11;;;;;;;24.87;17.60;;;14.50;99.90;;;;;;4959406;28;20315;-76
2022/09/27 12:05:15;;;;;;;25.53;17.03;;;14.50;99.90;;;;;;4966768;28;20282;-76
2022/09/27 12:08:09;;;;;;;24.93;17.50;;;14.70;99.90;;;;;;4935153;29;20240;-81
2022/09/27 12:10:40;;;;;;;26.57;15.93;;;14.80;99.90;;;;;;4922178;29;20235;-79
2022/09/27 12:15:56;;;;;;;23.50;16.27;;;14.90;99.90;;;;;;4983057;28;20271;-78
2022/09/27 12:18:34;;;;;;;20.03;14.47;;;15.00;99.90;;;;;;4969437;28;20197;-76
2022/09/27 12:21:19;;;;;;;22.20;14.97;;;15.40;99.90;;;;;;4983921;28;20221;-76
2022/09/27 12:23:52;;;;;;;19.13;14.17;;;15.70;99.90;;;;;;4983826;28;20197;-77
2022/09/27 12:26:34;;;;;;;19.83;13.60;;;15.80;99.90;;;;;;4974307;28;20208;-76
2022/09/27 12:29:32;;;;;;;18.47;13.90;;;15.80;99.90;;;;;;4971424;28;20644;-75
2022/09/27 12:32:19;;;;;;;17.97;12.80;;;15.70;99.90;;;;;;4967403;28;20212;-77
2022/09/27 12:34:59;;;;;;;18.37;13.47;;;15.90;99.90;;;;;;4948325;28;20204;-76
2022/09/27 12:37:39;;;;;;;16.60;12.17;;;16.10;99.90;;;;;;4955836;28;20631;-76
2022/09/27 12:40:17;;;;;;;16.90;12.07;;;16.20;99.90;;;;;;4942285;28;20612;-78
2022/09/27 12:42:57;;;;;;;15.90;11.80;;;16.10;99.90;;;;;;4963969;28;20223;-74
2022/09/27 12:45:51;;;;;;;15.43;11.40;;;16.20;99.90;;;;;;4949909;28;20198;-78
2022/09/27 12:48:18;;;;;;;14.93;11.83;;;16.40;99.90;;;;;;4948027;28;20194;-76
2022/09/27 12:50:51;;;;;;;20.10;11.57;;;16.60;99.90;;;;;;4964226;28;20200;-76
2022/09/27 12:53:38;;;;;;;15.33;11.10;;;16.60;99.90;;;;;;4949307;28;20726;-78
2022/09/27 12:56:31;;;;;;;13.87;10.97;;;16.60;99.90;;;;;;4949633;28;20578;-75
2022/09/27 12:59:22;;;;;;;13.70;11.00;;;16.60;99.90;;;;;;4964098;28;20227;-77
2022/09/27 13:01:48;;;;;;;15.30;11.13;;;16.60;99.90;;;;;;4948817;28;20197;-75
2022/09/27 13:04:26;;;;;;;17.43;11.23;;;16.60;99.90;;;;;;4967050;28;20198;-77
2022/09/27 13:07:10;;;;;;;17.20;11.50;;;16.70;99.90;;;;;;4964188;28;20211;-82
2022/09/27 13:09:56;;;;;;;13.73;10.37;;;16.80;99.90;;;;;;4955015;28;20198;-81
2022/09/27 13:12:28;;;;;;;13.43;10.07;;;16.80;99.90;;;;;;4951264;28;20190;-81
2022/09/27 13:15:16;;;;;;;13.37;10.33;;;16.80;99.90;;;;;;4961926;28;20834;-77
2022/09/27 13:18:05;;;;;;;12.70;9.63;;;16.70;99.90;;;;;;4956094;28;20219;-78
2022/09/27 13:20:41;;;;;;;10.93;8.80;;;16.70;99.90;;;;;;4990731;28;20200;-75
2022/09/27 13:23:17;;;;;;;11.63;9.00;;;16.70;99.90;;;;;;4977146;28;20231;-76
2022/09/27 13:29:28;;;;;;;12.17;8.67;;;16.60;99.90;;;;;;5032252;23;20292;-78
2022/09/27 13:31:56;;;;;;;14.63;9.30;;;16.60;99.90;;;;;;5009665;28;20203;-78
2022/09/27 13:34:52;;;;;;;12.27;8.33;;;16.50;99.90;;;;;;4989383;28;20198;-82